Time,TemperatureF,DewpointF,PressureIn,WindDirection,WindDirectionDegrees,WindSpeedMPH,WindSpeedGustMPH,Humidity,HourlyPrecipIn,Conditions,Clouds,dailyrainin,SoftwareType,DateUTC
2013-01-08 00:01:00,42.0,36.0,30.04,NW,316,0.0,-999.0,79,-99.99,,,0.00,weatherlink.com 1.10,2013-01-08 08:01:00,
2013-01-08 00:16:00,41.1,35.0,30.03,NW,315,0.0,-999.0,80,-99.99,,,0.00,weatherlink.com 1.10,2013-01-08 08:16:00,
2013-01-08 00:31:00,40.8,35.0,30.03,NW,316,0.0,-999.0,81,-99.99,,,0.00,weatherlink.com 1.10,2013-01-08 08:31:00,
2013-01-08 00:46:00,40.2,35.0,30.04,NW,315,0.0,-999.0,82,-99.99,,,0.00,weatherlink.com 1.10,2013-01-08 08:46:00,
2013-01-08 01:01:00,39.9,35.0,30.04,NW,314,0.0,-999.0,82,-99.99,,,0.00,weatherlink.com 1.10,2013-01-08 09:01:00,
2013-01-08 01:16:00,40.0,35.0,30.05,NW,316,0.0,-999.0,82,-99.99,,,0.00,weatherlink.com 1.10,2013-01-08 09:16:00,
2013-01-08 01:31:00,40.1,35.0,30.05,NW,321,0.0,-999.0,82,-99.99,,,0.00,weatherlink.com 1.10,2013-01-08 09:31:00,
2013-01-08 01:46:00,40.2,35.0,30.04,NW,321,0.0,-999.0,82,-99.99,,,0.00,weatherlink.com 1.10,2013-01-08 09:46:00,
2013-01-08 02:01:00,39.5,35.0,30.04,NW,322,0.0,-999.0,83,-99.99,,,0.00,weatherlink.com 1.10,2013-01-08 10:01:00,
2013-01-08 02:16:00,39.8,35.0,30.03,North,353,0.0,-999.0,82,-99.99,,,0.00,weatherlink.com 1.10,2013-01-08 10:16:00,
2013-01-08 02:31:00,40.1,34.0,30.02,North,353,0.0,-999.0,80,-99.99,,,0.00,weatherlink.com 1.10,2013-01-08 10:31:00,
2013-01-08 02:46:00,39.9,34.0,30.02,North,353,0.0,-999.0,79,-99.99,,,0.00,weatherlink.com 1.10,2013-01-08 10:46:00,
2013-01-08 03:01:00,39.9,34.0,30.01,North,353,0.0,-999.0,80,-99.99,,,0.00,weatherlink.com 1.10,2013-01-08 11:01:00,
2013-01-08 03:16:00,39.5,34.0,30.01,North,352,0.0,-999.0,80,-99.99,,,0.00,weatherlink.com 1.10,2013-01-08 11:16:00,
2013-01-08 03:31:00,38.9,34.0,30.02,East,91,0.0,-999.0,82,-99.99,,,0.00,weatherlink.com 1.10,2013-01-08 11:31:00,
2013-01-08 03:46:00,39.0,34.0,30.03,East,91,1.0,-999.0,82,-99.99,,,0.00,weatherlink.com 1.10,2013-01-08 11:46:00,
2013-01-08 04:01:00,40.3,33.0,30.03,East,85,0.0,-999.0,76,-99.99,,,0.00,weatherlink.com 1.10,2013-01-08 12:01:00,
2013-01-08 04:16:00,39.9,33.0,30.03,East,86,0.0,-999.0,76,-99.99,,,0.00,weatherlink.com 1.10,2013-01-08 12:16:00,
2013-01-08 04:31:00,39.0,33.0,30.03,East,86,0.0,-999.0,79,-99.99,,,0.00,weatherlink.com 1.10,2013-01-08 12:31:00,
2013-01-08 04:46:00,38.7,33.0,30.03,East,86,0.0,-999.0,81,-99.99,,,0.00,weatherlink.com 1.10,2013-01-08 12:46:00,
2013-01-08 05:01:00,38.8,33.0,30.04,NNE,16,0.0,-999.0,80,-99.99,,,0.00,weatherlink.com 1.10,2013-01-08 13:01:00,
2013-01-08 05:16:00,38.5,33.0,30.04,NNE,16,1.0,-999.0,82,-99.99,,,0.00,weatherlink.com 1.10,2013-01-08 13:16:00,
2013-01-08 05:31:00,38.4,33.0,30.04,SE,139,0.0,-999.0,82,-99.99,,,0.00,weatherlink.com 1.10,2013-01-08 13:31:00,
2013-01-08 05:46:00,38.5,33.0,30.04,SE,138,0.0,-999.0,82,-99.99,,,0.00,weatherlink.com 1.10,2013-01-08 13:46:00,
2013-01-08 06:01:00,37.8,33.0,30.05,SE,139,0.0,-999.0,82,-99.99,,,0.00,weatherlink.com 1.10,2013-01-08 14:01:00,
2013-01-08 06:16:00,38.0,34.0,30.05,SE,138,0.0,-999.0,84,-99.99,,,0.00,weatherlink.com 1.10,2013-01-08 14:16:00,
2013-01-08 06:31:00,38.1,33.0,30.06,SE,141,0.0,-999.0,83,-99.99,,,0.00,weatherlink.com 1.10,2013-01-08 14:31:00,
2013-01-08 06:46:00,37.8,33.0,30.07,SE,141,0.0,-999.0,83,-99.99,,,0.00,weatherlink.com 1.10,2013-01-08 14:46:00,
2013-01-08 07:01:00,38.4,34.0,30.07,SE,141,0.0,-999.0,83,-99.99,,,0.00,weatherlink.com 1.10,2013-01-08 15:01:00,
2013-01-08 07:16:00,38.5,34.0,30.08,SE,141,0.0,-999.0,83,-99.99,,,0.00,weatherlink.com 1.10,2013-01-08 15:16:00,
2013-01-08 07:31:00,39.1,34.0,30.09,SE,141,0.0,-999.0,83,-99.99,,,0.00,weatherlink.com 1.10,2013-01-08 15:31:00,
2013-01-08 07:46:00,39.9,35.0,30.09,SE,141,0.0,-999.0,83,-99.99,,,0.00,weatherlink.com 1.10,2013-01-08 15:46:00,
2013-01-08 08:01:00,41.3,36.0,30.10,SE,141,0.0,-999.0,80,-99.99,,,0.00,weatherlink.com 1.10,2013-01-08 16:01:00,
2013-01-08 08:16:00,44.0,38.0,30.10,SE,141,0.0,-999.0,78,-99.99,,,0.00,weatherlink.com 1.10,2013-01-08 16:16:00,
2013-01-08 08:31:00,47.9,41.0,30.10,SE,141,0.0,-999.0,78,-99.99,,,0.00,weatherlink.com 1.10,2013-01-08 16:31:00,
2013-01-08 08:46:00,54.9,46.0,30.10,SE,141,0.0,-999.0,71,-99.99,,,0.00,weatherlink.com 1.10,2013-01-08 16:46:00,
2013-01-08 09:01:00,57.6,50.0,30.11,SSE,149,0.0,-999.0,75,-99.99,,,0.00,weatherlink.com 1.10,2013-01-08 17:01:00,
2013-01-08 09:16:00,58.8,47.0,30.11,ESE,110,0.0,-999.0,66,-99.99,,,0.00,weatherlink.com 1.10,2013-01-08 17:16:00,
2013-01-08 09:31:00,60.4,49.0,30.11,South,189,0.0,-999.0,67,-99.99,,,0.00,weatherlink.com 1.10,2013-01-08 17:31:00,
2013-01-08 09:46:00,60.8,49.0,30.11,ESE,115,0.0,-999.0,65,-99.99,,,0.00,weatherlink.com 1.10,2013-01-08 17:46:00,
2013-01-08 10:01:00,61.4,49.0,30.11,SW,236,0.0,-999.0,65,-99.99,,,0.00,weatherlink.com 1.10,2013-01-08 18:01:00,
2013-01-08 10:16:00,61.5,50.0,30.10,WSW,240,0.0,-999.0,65,-99.99,,,0.00,weatherlink.com 1.10,2013-01-08 18:16:00,
2013-01-08 10:46:00,64.2,50.0,30.09,WSW,249,0.0,-999.0,61,-99.99,,,0.00,weatherlink.com 1.10,2013-01-08 18:46:00,
2013-01-08 11:01:00,65.1,50.0,30.07,NE,42,0.0,-999.0,59,-99.99,,,0.00,weatherlink.com 1.10,2013-01-08 19:01:00,
2013-01-08 11:16:00,67.0,50.0,30.07,SW,236,0.0,-999.0,55,-99.99,,,0.00,weatherlink.com 1.10,2013-01-08 19:16:00,
2013-01-08 11:31:00,68.2,46.0,30.06,SW,225,0.0,-999.0,46,-99.99,,,0.00,weatherlink.com 1.10,2013-01-08 19:31:00,
2013-01-08 11:46:00,69.9,50.0,30.05,SE,133,2.0,-999.0,50,-99.99,,,0.00,weatherlink.com 1.10,2013-01-08 19:46:00,
2013-01-08 12:01:00,69.9,48.0,30.05,SSE,152,0.0,-999.0,46,-99.99,,,0.00,weatherlink.com 1.10,2013-01-08 20:01:00,
2013-01-08 12:16:00,70.4,47.0,30.05,SE,141,1.0,-999.0,44,-99.99,,,0.00,weatherlink.com 1.10,2013-01-08 20:16:00,
2013-01-08 12:31:00,69.5,47.0,30.04,SW,224,2.0,-999.0,44,-99.99,,,0.00,weatherlink.com 1.10,2013-01-08 20:31:00,
2013-01-08 12:46:00,68.9,45.0,30.04,SSE,155,0.0,-999.0,43,-99.99,,,0.00,weatherlink.com 1.10,2013-01-08 20:46:00,
2013-01-08 13:01:00,68.6,46.0,30.04,West,267,1.0,-999.0,44,-99.99,,,0.00,weatherlink.com 1.10,2013-01-08 21:01:00,
2013-01-08 13:16:00,68.9,45.0,30.03,SW,214,1.0,-999.0,43,-99.99,,,0.00,weatherlink.com 1.10,2013-01-08 21:16:00,
2013-01-08 13:31:00,68.8,44.0,30.03,South,185,1.0,-999.0,41,-99.99,,,0.00,weatherlink.com 1.10,2013-01-08 21:31:00,
2013-01-08 13:46:00,69.0,45.0,30.03,SE,124,0.0,-999.0,42,-99.99,,,0.00,weatherlink.com 1.10,2013-01-08 21:46:00,
2013-01-08 14:01:00,69.3,44.0,30.04,WSW,248,2.0,-999.0,41,-99.99,,,0.00,weatherlink.com 1.10,2013-01-08 22:01:00,
2013-01-08 14:16:00,69.7,47.0,30.04,SSE,155,2.0,-999.0,44,-99.99,,,0.00,weatherlink.com 1.10,2013-01-08 22:16:00,
2013-01-08 14:31:00,69.7,48.0,30.03,SSW,200,1.0,-999.0,46,-99.99,,,0.00,weatherlink.com 1.10,2013-01-08 22:31:00,
2013-01-08 14:46:00,69.9,50.0,30.04,SSW,204,0.0,-999.0,49,-99.99,,,0.00,weatherlink.com 1.10,2013-01-08 22:46:00,
2013-01-08 15:01:00,71.4,50.0,30.04,NW,309,0.0,-999.0,47,-99.99,,,0.00,weatherlink.com 1.10,2013-01-08 23:01:00,
2013-01-08 15:16:00,72.5,51.0,30.04,SW,224,0.0,-999.0,47,-99.99,,,0.00,weatherlink.com 1.10,2013-01-08 23:16:00,
2013-01-08 15:31:00,71.8,51.0,30.04,SSE,150,1.0,-999.0,48,-99.99,,,0.00,weatherlink.com 1.10,2013-01-08 23:31:00,
2013-01-08 15:46:00,71.8,51.0,30.04,SW,222,2.0,-999.0,49,-99.99,,,0.00,weatherlink.com 1.10,2013-01-08 23:46:00,
2013-01-08 16:01:00,72.3,51.0,30.05,SSE,154,1.0,-999.0,48,-99.99,,,0.00,weatherlink.com 1.10,2013-01-09 00:01:00,
2013-01-08 16:16:00,71.4,51.0,30.05,WSW,249,0.0,-999.0,48,-99.99,,,0.00,weatherlink.com 1.10,2013-01-09 00:16:00,
2013-01-08 16:31:00,70.8,51.0,30.06,West,267,1.0,-999.0,49,-99.99,,,0.00,weatherlink.com 1.10,2013-01-09 00:31:00,
2013-01-08 16:46:00,66.9,51.0,30.07,West,260,1.0,-999.0,57,-99.99,,,0.00,weatherlink.com 1.10,2013-01-09 00:46:00,
2013-01-08 17:01:00,64.5,51.0,30.07,SW,228,1.0,-999.0,63,-99.99,,,0.00,weatherlink.com 1.10,2013-01-09 01:01:00,
2013-01-08 17:16:00,62.6,52.0,30.07,SW,232,1.0,-999.0,69,-99.99,,,0.00,weatherlink.com 1.10,2013-01-09 01:16:00,
2013-01-08 17:31:00,61.3,53.0,30.08,SW,232,0.0,-999.0,73,-99.99,,,0.00,weatherlink.com 1.10,2013-01-09 01:31:00,
2013-01-08 17:46:00,60.1,52.0,30.08,WSW,239,0.0,-999.0,75,-99.99,,,0.00,weatherlink.com 1.10,2013-01-09 01:46:00,
2013-01-08 18:01:00,58.5,52.0,30.08,WSW,239,0.0,-999.0,79,-99.99,,,0.00,weatherlink.com 1.10,2013-01-09 02:01:00,
2013-01-08 18:16:00,57.4,52.0,30.09,WSW,239,0.0,-999.0,82,-99.99,,,0.00,weatherlink.com 1.10,2013-01-09 02:16:00,
2013-01-08 18:31:00,56.5,52.0,30.09,WSW,239,0.0,-999.0,84,-99.99,,,0.00,weatherlink.com 1.10,2013-01-09 02:31:00,
2013-01-08 18:46:00,55.8,51.0,30.09,WSW,238,0.0,-999.0,85,-99.99,,,0.00,weatherlink.com 1.10,2013-01-09 02:46:00,
2013-01-08 19:01:00,55.1,51.0,30.09,WSW,238,0.0,-999.0,86,-99.99,,,0.00,weatherlink.com 1.10,2013-01-09 03:01:00,
2013-01-08 19:16:00,54.7,51.0,30.08,WSW,238,0.0,-999.0,87,-99.99,,,0.00,weatherlink.com 1.10,2013-01-09 03:16:00,
2013-01-08 19:31:00,54.2,51.0,30.08,WSW,238,0.0,-999.0,87,-99.99,,,0.00,weatherlink.com 1.10,2013-01-09 03:31:00,
2013-01-08 19:46:00,53.7,50.0,30.08,WSW,238,0.0,-999.0,88,-99.99,,,0.00,weatherlink.com 1.10,2013-01-09 03:46:00,
2013-01-08 20:03:00,52.8,49.0,30.08,WSW,238,0.0,-999.0,88,-99.99,,,0.00,weatherlink.com 1.10,2013-01-09 04:03:00,
2013-01-08 20:16:00,51.8,48.0,30.09,WSW,238,0.0,-999.0,88,-99.99,,,0.00,weatherlink.com 1.10,2013-01-09 04:16:00,
2013-01-08 20:31:00,51.4,49.0,30.09,WSW,238,0.0,-999.0,90,-99.99,,,0.00,weatherlink.com 1.10,2013-01-09 04:31:00,
2013-01-08 20:46:00,50.6,48.0,30.09,WSW,238,0.0,-999.0,90,-99.99,,,0.00,weatherlink.com 1.10,2013-01-09 04:46:00,
2013-01-08 21:16:00,50.2,48.0,30.09,WSW,238,0.0,-999.0,91,-99.99,,,0.00,weatherlink.com 1.10,2013-01-09 05:16:00,
2013-01-08 21:47:00,49.6,47.0,30.09,WSW,238,0.0,-999.0,91,-99.99,,,0.00,weatherlink.com 1.10,2013-01-09 05:47:00,
2013-01-08 22:02:00,49.1,46.0,30.09,SE,127,0.0,-999.0,90,-99.99,,,0.00,weatherlink.com 1.10,2013-01-09 06:02:00,
2013-01-08 22:17:00,49.1,46.0,30.10,SE,127,0.0,-999.0,90,-99.99,,,0.00,weatherlink.com 1.10,2013-01-09 06:17:00,
2013-01-08 22:32:00,48.8,46.0,30.10,SE,127,0.0,-999.0,90,-99.99,,,0.00,weatherlink.com 1.10,2013-01-09 06:32:00,
2013-01-08 22:47:00,48.5,46.0,30.10,SE,124,0.0,-999.0,90,-99.99,,,0.00,weatherlink.com 1.10,2013-01-09 06:47:00,
2013-01-08 23:02:00,48.1,46.0,30.11,SE,124,0.0,-999.0,91,-99.99,,,0.00,weatherlink.com 1.10,2013-01-09 07:02:00,
2013-01-08 23:17:00,47.5,45.0,30.11,SE,124,0.0,-999.0,90,-99.99,,,0.00,weatherlink.com 1.10,2013-01-09 07:17:00,
2013-01-08 23:32:00,46.8,44.0,30.11,SE,124,0.0,-999.0,90,-99.99,,,0.00,weatherlink.com 1.10,2013-01-09 07:32:00,